createdAt,value
2022-11-17T10:50:53.954Z,5.30
2022-11-17T10:56:16.683Z,6.70
2022-11-17T11:01:30.568Z,6.70
2022-11-17T11:06:36.017Z,6.50
2022-11-17T11:11:58.151Z,6.70
2022-11-17T11:17:11.075Z,6.70
2022-11-17T11:22:40.948Z,7.80
2022-11-17T11:27:59.589Z,9.90
2022-11-17T11:33:26.038Z,7.70
2022-11-17T11:39:01.136Z,7.80
2022-11-17T11:44:26.941Z,6.50
2022-11-17T11:49:49.498Z,5.90
2022-11-17T11:55:05.508Z,6.90
2022-11-17T12:00:19.187Z,5.10
2022-11-17T12:05:41.222Z,6.90
2022-11-17T12:11:32.854Z,5.20
2022-11-17T12:16:37.432Z,5.60
2022-11-17T12:21:41.728Z,5.10
2022-11-17T12:26:45.550Z,7.00
2022-11-17T12:32:01.791Z,7.20
2022-11-17T12:37:26.676Z,5.30
2022-11-17T12:42:33.579Z,9.10
2022-11-17T12:48:04.810Z,6.80
2022-11-17T12:53:21.569Z,5.20
2022-11-17T12:58:51.701Z,4.30
2022-11-17T13:04:01.678Z,5.40
2022-11-17T13:09:11.887Z,5.20
2022-11-17T13:14:17.676Z,7.00
2022-11-17T13:19:37.933Z,6.20
2022-11-17T13:24:48.306Z,8.80
2022-11-17T13:30:16.606Z,7.50
2022-11-17T13:35:29.950Z,8.50
2022-11-17T13:40:36.129Z,9.20
2022-11-17T13:45:40.799Z,7.20
2022-11-17T13:50:44.596Z,11.20
2022-11-17T13:55:48.216Z,8.50
2022-11-17T14:00:57.957Z,7.50
2022-11-17T14:06:03.754Z,12.10
2022-11-17T14:11:10.538Z,16.70
2022-11-17T14:16:35.212Z,14.20
2022-11-17T14:22:14.311Z,9.40
2022-11-17T14:27:30.681Z,10.50
2022-11-17T14:32:35.162Z,9.10
2022-11-17T14:37:38.677Z,7.60
2022-11-17T14:42:42.751Z,9.60
2022-11-17T14:47:46.422Z,10.20
2022-11-17T14:52:49.844Z,12.30
2022-11-17T14:57:53.765Z,18.10
2022-11-17T15:02:57.309Z,19.10
2022-11-17T15:08:00.896Z,39.80
2022-11-17T15:13:04.416Z,22.00
2022-11-17T15:18:12.340Z,48.70
2022-11-17T15:23:16.157Z,24.90
2022-11-17T15:28:23.071Z,42.50
2022-11-17T15:33:26.686Z,40.90
2022-11-17T15:38:31.669Z,40.60
2022-11-17T15:43:37.915Z,21.70
2022-11-17T15:48:45.772Z,15.10
2022-11-17T15:53:51.698Z,14.60
2022-11-17T15:59:05.453Z,20.00
2022-11-17T16:04:12.348Z,21.30
2022-11-17T16:09:16.815Z,24.50
2022-11-17T16:14:20.524Z,31.10
2022-11-17T16:19:23.916Z,21.50
2022-11-17T16:24:27.355Z,23.70
2022-11-17T16:29:31.321Z,17.60
2022-11-17T16:34:34.674Z,37.00
2022-11-17T16:39:38.125Z,41.20
2022-11-17T16:44:41.560Z,18.80
2022-11-17T16:49:50.512Z,12.10
2022-11-17T16:54:57.237Z,17.40
2022-11-17T17:00:04.317Z,13.90
2022-11-17T17:05:08.142Z,17.30
2022-11-17T17:10:11.989Z,21.70
2022-11-17T17:15:15.730Z,20.10
2022-11-17T17:20:19.125Z,22.40
2022-11-17T17:25:22.536Z,17.30
2022-11-17T17:30:25.985Z,15.00
2022-11-17T17:35:29.359Z,21.50
2022-11-17T17:40:34.310Z,23.40
2022-11-17T17:45:38.128Z,19.80
2022-11-17T17:50:41.679Z,27.00
2022-11-17T17:55:45.064Z,36.60
2022-11-17T18:00:50.114Z,69.30
2022-11-17T18:05:53.547Z,29.60
2022-11-17T18:11:01.863Z,34.40
2022-11-17T18:16:10.493Z,18.10
2022-11-17T18:21:18.926Z,18.60
2022-11-17T18:26:34.114Z,16.90
2022-11-17T18:31:38.414Z,47.20
2022-11-17T18:36:42.155Z,32.20
2022-11-17T18:41:45.759Z,15.00
2022-11-17T18:46:49.213Z,11.40
2022-11-17T18:51:52.619Z,11.00
2022-11-17T18:56:56.497Z,9.60
2022-11-17T19:02:00.294Z,26.70
2022-11-17T19:07:04.274Z,31.50
2022-11-17T19:12:10.024Z,24.40
2022-11-17T19:17:13.579Z,25.20
2022-11-17T19:22:17.167Z,18.80
2022-11-17T19:27:20.611Z,19.10
2022-11-17T19:32:24.126Z,15.40
2022-11-17T19:37:27.545Z,13.80
2022-11-17T19:42:30.979Z,14.50
2022-11-17T19:47:36.014Z,20.20
2022-11-17T19:52:39.527Z,22.30
2022-11-17T19:57:43.044Z,18.50
2022-11-17T20:02:46.447Z,8.70
2022-11-17T20:07:49.969Z,11.30
2022-11-17T20:12:53.486Z,8.20
2022-11-17T20:17:57.216Z,9.40
2022-11-17T20:23:00.625Z,25.20
2022-11-17T20:28:04.244Z,21.50
2022-11-17T20:33:08.069Z,8.80
2022-11-17T20:38:14.662Z,29.40
2022-11-17T20:43:19.174Z,30.40
2022-11-17T20:48:24.758Z,14.90
2022-11-17T20:53:29.468Z,23.60
2022-11-17T20:58:34.047Z,8.80
2022-11-17T21:03:37.531Z,7.30
2022-11-17T21:08:42.803Z,7.00
2022-11-17T21:13:46.329Z,5.80
2022-11-17T21:18:50.049Z,6.80
2022-11-17T21:23:55.108Z,6.60
2022-11-17T21:29:04.850Z,5.90
2022-11-17T21:34:16.917Z,9.70
2022-11-17T21:39:20.400Z,8.30
2022-11-17T21:44:23.913Z,6.40
2022-11-17T21:49:27.633Z,6.10
2022-11-17T21:54:31.149Z,5.50
2022-11-17T21:59:34.665Z,6.10
2022-11-17T22:04:38.490Z,2.30
2022-11-17T22:09:41.904Z,5.70
2022-11-17T22:14:45.315Z,4.90
2022-11-17T22:19:48.762Z,6.20
2022-11-17T22:24:52.249Z,2.30
2022-11-17T22:29:55.766Z,5.70
2022-11-17T22:35:02.047Z,4.10
2022-11-17T22:40:07.029Z,4.40
2022-11-17T22:45:11.134Z,2.90
2022-11-17T22:50:14.550Z,5.20
2022-11-17T22:55:18.260Z,4.60
2022-11-17T23:00:21.780Z,4.00
2022-11-17T23:05:25.235Z,5.30
2022-11-17T23:10:29.357Z,5.30
2022-11-17T23:15:32.782Z,3.90
2022-11-17T23:20:36.811Z,3.00
2022-11-17T23:25:40.165Z,3.10
2022-11-17T23:30:43.797Z,3.90
2022-11-17T23:35:47.422Z,4.70
2022-11-17T23:40:52.061Z,4.60
2022-11-17T23:45:56.632Z,5.60
2022-11-17T23:51:09.331Z,6.00
2022-11-17T23:56:13.977Z,6.30
